createdAt,value
2022-07-25T00:02:07.293Z,1010.23
2022-07-25T00:07:06.630Z,1010.29
2022-07-25T00:12:07.362Z,1010.27
2022-07-25T00:17:08.068Z,1010.08
2022-07-25T00:22:11.591Z,1010.04
2022-07-25T00:27:12.270Z,1010.06
2022-07-25T00:32:12.940Z,1009.91
2022-07-25T00:37:13.662Z,1009.98
2022-07-25T00:42:14.455Z,1009.97
2022-07-25T00:47:15.148Z,1010.02
2022-07-25T00:52:15.821Z,1009.85
2022-07-25T00:57:16.569Z,1009.77
2022-07-25T01:02:17.346Z,1009.77
2022-07-25T01:07:17.973Z,1009.62
2022-07-25T01:12:18.711Z,1009.66
2022-07-25T01:17:19.450Z,1009.57
2022-07-25T01:22:20.202Z,1009.55
2022-07-25T01:27:20.924Z,1009.46
2022-07-25T01:32:21.477Z,1009.42
2022-07-25T01:37:22.296Z,1009.38
2022-07-25T01:42:22.930Z,1009.4
2022-07-25T01:47:26.508Z,1009.29
2022-07-25T01:52:27.146Z,1009.29
2022-07-25T01:57:30.855Z,1009.31
2022-07-25T02:02:28.616Z,1009.12
2022-07-25T02:07:29.257Z,1009.25
2022-07-25T02:12:29.967Z,1009.18
2022-07-25T02:17:30.837Z,1009.09
2022-07-25T02:22:31.486Z,1009.16
2022-07-25T02:27:32.236Z,1009.06
2022-07-25T02:32:32.929Z,1008.96
2022-07-25T02:37:33.604Z,1008.95
2022-07-25T02:42:34.328Z,1008.85
2022-07-25T02:47:34.908Z,1008.96
2022-07-25T02:52:35.763Z,1008.86
2022-07-25T02:57:36.440Z,1008.75
2022-07-25T03:02:37.146Z,1008.7
2022-07-25T03:07:37.783Z,1008.72
2022-07-25T03:12:38.509Z,1008.67
2022-07-25T03:17:39.154Z,1008.61
2022-07-25T03:22:39.992Z,1008.53
2022-07-25T03:27:40.628Z,1008.48
2022-07-25T03:32:41.299Z,1008.44
2022-07-25T03:37:44.876Z,1008.39
2022-07-25T03:42:45.522Z,1008.29
2022-07-25T03:47:46.304Z,1008.28
2022-07-25T03:52:46.973Z,1008.26
2022-07-25T03:57:47.753Z,1008.23
2022-07-25T04:02:48.585Z,1008.2
2022-07-25T04:07:49.120Z,1008.13
2022-07-25T04:12:49.896Z,1008.14
2022-07-25T04:17:50.652Z,1008.08
2022-07-25T04:22:51.363Z,1007.96
2022-07-25T04:27:52.010Z,1007.99
2022-07-25T04:32:52.876Z,1007.96
2022-07-25T04:37:53.607Z,1007.96
2022-07-25T04:42:54.216Z,1007.9
2022-07-25T04:47:55.045Z,1007.77
2022-07-25T04:52:55.678Z,1007.69
2022-07-25T04:57:56.451Z,1007.73
2022-07-25T05:02:57.103Z,1007.54
2022-07-25T05:08:07.570Z,1007.44
2022-07-25T05:13:01.245Z,1007.43
2022-07-25T05:18:01.990Z,1007.43
2022-07-25T05:23:02.706Z,1007.4
2022-07-25T05:28:03.422Z,1007.32
2022-07-25T05:33:04.244Z,1007.27
2022-07-25T05:38:04.955Z,1007.17
2022-07-25T05:43:05.669Z,1007.19
2022-07-25T05:48:06.259Z,1007.2
2022-07-25T05:53:07.091Z,1007.11
2022-07-25T05:58:07.759Z,1007.12
2022-07-25T06:03:08.512Z,1007.08
2022-07-25T06:08:09.277Z,1007.01
2022-07-25T06:13:09.963Z,1006.99
2022-07-25T06:18:10.739Z,1007.1
2022-07-25T06:23:11.297Z,1007.03
2022-07-25T06:28:12.015Z,1006.87
2022-07-25T06:33:12.712Z,1006.81
2022-07-25T06:38:16.173Z,1006.7
2022-07-25T06:43:16.891Z,1006.7
2022-07-25T06:48:17.559Z,1006.61
2022-07-25T06:53:18.373Z,1006.52
2022-07-25T06:58:19.118Z,1006.54
2022-07-25T07:03:19.825Z,1006.46
2022-07-25T07:08:20.389Z,1006.34
2022-07-25T07:13:24.239Z,1006.35
2022-07-25T07:18:21.834Z,1006.25
2022-07-25T07:23:22.583Z,1006.12
2022-07-25T07:28:23.241Z,1006.1
2022-07-25T07:33:23.874Z,1006.16
2022-07-25T07:38:24.268Z,1006.06
2022-07-25T07:43:30.156Z,1006
2022-07-25T07:48:28.451Z,1006
2022-07-25T07:53:29.203Z,1005.92
2022-07-25T07:58:29.810Z,1005.93
2022-07-25T08:03:30.546Z,1005.81
2022-07-25T08:08:31.650Z,1005.92
2022-07-25T08:13:31.952Z,1005.82
2022-07-25T08:18:32.569Z,1005.72
2022-07-25T08:23:33.236Z,1005.68
2022-07-25T08:28:33.862Z,1005.69
2022-07-25T08:33:37.339Z,1005.58
2022-07-25T08:38:37.940Z,1005.61
2022-07-25T08:43:38.650Z,1005.57
2022-07-25T08:48:39.395Z,1005.56
2022-07-25T08:53:39.989Z,1005.57
2022-07-25T08:58:40.782Z,1005.41
2022-07-25T09:03:41.361Z,1005.37
2022-07-25T09:08:41.982Z,1005.41
2022-07-25T09:13:45.358Z,1005.37
2022-07-25T09:18:45.981Z,1005.18
2022-07-25T09:23:46.709Z,1005.21
2022-07-25T09:28:47.325Z,1005.1
2022-07-25T09:33:47.919Z,1004.97
2022-07-25T09:38:48.657Z,1004.91
2022-07-25T09:43:49.299Z,1004.97
2022-07-25T09:48:52.720Z,1004.7
2022-07-25T09:53:53.215Z,1004.6
2022-07-25T09:58:53.898Z,1004.6
2022-07-25T10:03:54.619Z,1004.44
2022-07-25T10:08:55.121Z,1004.4
2022-07-25T10:13:55.823Z,1004.39
2022-07-25T10:18:56.422Z,1004.29
2022-07-25T10:23:59.836Z,1004.21
2022-07-25T10:29:00.513Z,1004.17
2022-07-25T10:34:01.145Z,1004.05
2022-07-25T10:39:01.873Z,1004.02
2022-07-25T10:44:02.457Z,1003.99
2022-07-25T10:49:06.185Z,1003.81
2022-07-25T10:54:06.623Z,1003.67
2022-07-25T10:59:07.437Z,1003.64
2022-07-25T11:04:07.634Z,1003.58
2022-07-25T11:09:08.674Z,1003.51
2022-07-25T11:14:08.850Z,1003.45
2022-07-25T11:19:12.296Z,1003.47
2022-07-25T11:24:12.945Z,1003.35
2022-07-25T11:29:13.489Z,1003.48
2022-07-25T11:34:14.186Z,1003.24
2022-07-25T11:39:18.645Z,1003.21
2022-07-25T11:44:18.166Z,1003.13
2022-07-25T11:46:41.442Z,1003.32
2022-07-25T11:51:41.010Z,1003.06
2022-07-25T11:57:07.476Z,1003.08
2022-07-25T12:01:54.043Z,1002.87
2022-07-25T12:06:50.495Z,1002.9
2022-07-25T12:12:10.910Z,1002.9
2022-07-25T12:27:12.603Z,1002.65
2022-07-25T12:39:33.990Z,1002.46
2022-07-25T12:42:27.611Z,1002.31
2022-07-25T12:46:57.903Z,1002.36
2022-07-25T12:56:03.430Z,1002.12
2022-07-25T12:57:14.548Z,1002.13
2022-07-25T13:03:19.198Z,1002.29
2022-07-25T13:27:14.445Z,1001.87
2022-07-25T13:32:46.487Z,1001.77
2022-07-25T13:37:25.475Z,1001.67
2022-07-25T13:42:30.317Z,1001.6
2022-07-25T13:48:27.098Z,1001.57
2022-07-25T13:51:40.067Z,1001.41
2022-07-25T13:56:39.595Z,1001.45
2022-07-25T14:01:45.253Z,1001.28
2022-07-25T14:06:43.451Z,1001.3
2022-07-25T14:11:43.968Z,1001.18
2022-07-25T14:16:44.561Z,1001.14
2022-07-25T14:21:45.197Z,1001.08
2022-07-25T14:26:48.553Z,1001.02
2022-07-25T14:31:49.230Z,1001.02
2022-07-25T14:36:49.591Z,1001.07
2022-07-25T14:41:50.599Z,1000.97
2022-07-25T14:46:50.800Z,1000.94
2022-07-25T14:51:53.968Z,1000.85
2022-07-25T14:56:54.529Z,1000.82
2022-07-25T15:01:55.009Z,1000.66
2022-07-25T15:06:55.662Z,1000.63
2022-07-25T15:11:56.261Z,1000.47
2022-07-25T15:16:59.555Z,1000.39
2022-07-25T15:22:00.021Z,1000.39
2022-07-25T15:27:00.495Z,1000.34
2022-07-25T15:32:01.235Z,1000.24
2022-07-25T15:37:01.521Z,1000.18
2022-07-25T15:42:04.942Z,1000.02
2022-07-25T15:47:05.575Z,999.95
2022-07-25T15:52:06.161Z,999.96
2022-07-25T15:57:06.800Z,999.83
2022-07-25T16:02:10.108Z,999.77
2022-07-25T16:07:10.722Z,999.68
2022-07-25T16:12:11.270Z,999.5
2022-07-25T16:17:11.836Z,999.52
2022-07-25T16:31:39.129Z,999.37
2022-07-25T16:36:42.518Z,999.34
2022-07-25T16:41:44.240Z,999.2
2022-07-25T16:46:38.598Z,999.31
2022-07-25T16:51:38.916Z,999.35
2022-07-25T16:56:30.836Z,999.28
2022-07-25T17:01:30.448Z,999.18
2022-07-25T17:06:31.088Z,999.25
2022-07-25T17:11:31.558Z,999.23
2022-07-25T17:16:34.926Z,999.62
2022-07-25T17:21:35.588Z,1000.04
2022-07-25T17:26:36.126Z,1000.32
2022-07-25T17:31:46.431Z,1001.12
2022-07-25T17:36:37.195Z,1001.08
2022-07-25T17:41:40.444Z,1001.07
2022-07-25T17:46:41.103Z,1001.19
2022-07-25T17:51:41.511Z,1001.4
2022-07-25T17:56:27.002Z,1001.38
2022-07-25T18:01:38.672Z,1001.61
2022-07-25T18:11:39.875Z,1001.35
2022-07-25T18:16:42.838Z,1000.85
2022-07-25T18:21:30.590Z,1001.21
2022-07-25T18:26:32.355Z,1001.25
2022-07-25T18:31:41.193Z,1001.29
2022-07-25T18:36:40.880Z,1001.27
2022-07-25T18:41:50.602Z,1001.08
2022-07-25T18:46:41.979Z,1000.98
2022-07-25T18:51:39.140Z,1001.09
2022-07-25T18:56:39.005Z,1000.94
2022-07-25T19:01:39.705Z,1000.92
2022-07-25T19:06:40.623Z,1001.01
2022-07-25T19:11:42.294Z,1001.04
2022-07-25T19:16:42.990Z,1001.15
2022-07-25T19:21:45.163Z,1001.19
2022-07-25T19:26:48.022Z,1001.15
2022-07-25T19:31:51.150Z,1001.05
2022-07-25T19:36:48.865Z,1001.02
2022-07-25T19:41:51.422Z,1001.14
2022-07-25T19:46:49.180Z,1001.18
2022-07-25T19:51:52.553Z,1001.04
2022-07-25T19:56:54.292Z,1001.05
2022-07-25T20:02:06.287Z,1000.99
2022-07-25T20:06:56.423Z,1001.03
2022-07-25T20:11:58.510Z,1002.02
2022-07-25T20:17:00.621Z,1001.78
2022-07-25T20:22:08.651Z,1001.47
2022-07-25T20:26:29.108Z,1001.58
2022-07-25T20:31:26.581Z,1001.65
2022-07-25T20:36:26.987Z,1001.72
2022-07-25T20:41:27.735Z,1001.83
2022-07-25T20:46:28.247Z,1001.97
2022-07-25T20:51:28.989Z,1002.1
2022-07-25T20:56:29.533Z,1002.32
2022-07-25T21:01:30.300Z,1002.45
2022-07-25T21:06:33.585Z,1002.43
2022-07-25T21:11:34.246Z,1002.58
2022-07-25T21:16:34.998Z,1002.67
2022-07-25T21:21:35.651Z,1003.09
2022-07-25T21:26:36.451Z,1003.55
2022-07-25T21:31:37.123Z,1003.85
2022-07-25T21:41:41.141Z,1003.44
2022-07-25T21:46:42.247Z,1003.25
2022-07-25T21:51:42.480Z,1003.53
2022-07-25T21:56:43.240Z,1003.54
2022-07-25T22:01:44.159Z,1003.15
2022-07-25T22:06:47.385Z,1003.13
2022-07-25T22:11:46.032Z,1002.97
2022-07-25T22:16:52.840Z,1003.14
2022-07-25T22:21:54.288Z,1003.19
2022-07-25T22:26:49.806Z,1003.17
2022-07-25T22:31:50.551Z,1003.46
2022-07-25T22:36:51.213Z,1003.55
2022-07-25T22:41:51.901Z,1003.63
2022-07-25T22:47:07.057Z,1003.47
2022-07-25T22:51:55.716Z,1003.54
2022-07-25T22:56:56.380Z,1003.48
2022-07-25T23:01:57.186Z,1003.64
2022-07-25T23:06:57.813Z,1003.84
2022-07-25T23:11:58.528Z,1003.97
2022-07-25T23:16:59.289Z,1003.92
2022-07-25T23:21:59.998Z,1003.82
2022-07-25T23:27:00.315Z,1004.07
2022-07-25T23:32:03.706Z,1004.29
2022-07-25T23:37:04.342Z,1004.41
2022-07-25T23:42:05.016Z,1004.28
2022-07-25T23:47:09.502Z,1004.44
2022-07-25T23:52:11.284Z,1004.67
2022-07-25T23:57:07.081Z,1004.73
